sensor_id;sensor_type;location;lat;lon;timestamp;P1;durP1;ratioP1;P2;durP2;ratioP2
21192;SDS011;10754;51.106;7.164;2022-10-15T00:00:04;2.10;;;2.00;;
21192;SDS011;10754;51.106;7.164;2022-10-15T00:02:31;3.38;;;2.40;;
21192;SDS011;10754;51.106;7.164;2022-10-15T00:04:57;4.47;;;2.10;;
21192;SDS011;10754;51.106;7.164;2022-10-15T00:07:23;2.78;;;2.17;;
21192;SDS011;10754;51.106;7.164;2022-10-15T00:09:48;2.90;;;2.15;;
21192;SDS011;10754;51.106;7.164;2022-10-15T00:12:14;2.33;;;2.13;;
21192;SDS011;10754;51.106;7.164;2022-10-15T00:14:39;3.55;;;2.40;;
21192;SDS011;10754;51.106;7.164;2022-10-15T00:17:05;3.55;;;2.70;;
21192;SDS011;10754;51.106;7.164;2022-10-15T00:19:30;2.38;;;2.17;;
21192;SDS011;10754;51.106;7.164;2022-10-15T00:21:56;2.22;;;1.98;;
21192;SDS011;10754;51.106;7.164;2022-10-15T00:24:21;5.68;;;2.88;;
21192;SDS011;10754;51.106;7.164;2022-10-15T00:26:47;4.22;;;2.17;;
21192;SDS011;10754;51.106;7.164;2022-10-15T00:29:12;3.63;;;2.45;;
21192;SDS011;10754;51.106;7.164;2022-10-15T00:31:38;2.67;;;2.20;;
21192;SDS011;10754;51.106;7.164;2022-10-15T00:34:03;5.10;;;2.55;;
21192;SDS011;10754;51.106;7.164;2022-10-15T00:36:30;3.25;;;2.40;;
21192;SDS011;10754;51.106;7.164;2022-10-15T00:38:58;3.22;;;2.58;;
21192;SDS011;10754;51.106;7.164;2022-10-15T00:41:26;2.80;;;2.28;;
21192;SDS011;10754;51.106;7.164;2022-10-15T00:43:55;3.25;;;2.40;;
21192;SDS011;10754;51.106;7.164;2022-10-15T00:46:27;3.35;;;2.45;;
21192;SDS011;10754;51.106;7.164;2022-10-15T00:49:11;4.55;;;2.80;;
21192;SDS011;10754;51.106;7.164;2022-10-15T00:51:46;3.67;;;2.33;;
21192;SDS011;10754;51.106;7.164;2022-10-15T00:54:16;3.00;;;2.58;;
21192;SDS011;10754;51.106;7.164;2022-10-15T00:56:43;3.25;;;2.40;;
21192;SDS011;10754;51.106;7.164;2022-10-15T00:59:09;3.75;;;2.70;;
21192;SDS011;10754;51.106;7.164;2022-10-15T01:01:37;4.28;;;2.58;;
21192;SDS011;10754;51.106;7.164;2022-10-15T01:04:03;4.75;;;2.50;;
21192;SDS011;10754;51.106;7.164;2022-10-15T01:06:31;4.45;;;2.80;;
21192;SDS011;10754;51.106;7.164;2022-10-15T01:08:57;4.20;;;3.08;;
21192;SDS011;10754;51.106;7.164;2022-10-15T01:25:11;3.42;;;3.17;;
21192;SDS011;10754;51.106;7.164;2022-10-15T01:27:54;3.20;;;2.90;;
21192;SDS011;10754;51.106;7.164;2022-10-15T01:30:39;4.30;;;3.08;;
21192;SDS011;10754;51.106;7.164;2022-10-15T01:35:53;3.50;;;2.85;;
21192;SDS011;10754;51.106;7.164;2022-10-15T01:38:23;3.97;;;2.80;;
21192;SDS011;10754;51.106;7.164;2022-10-15T01:40:54;7.07;;;3.35;;
21192;SDS011;10754;51.106;7.164;2022-10-15T01:43:32;3.97;;;3.00;;
21192;SDS011;10754;51.106;7.164;2022-10-15T01:46:05;7.80;;;3.13;;
21192;SDS011;10754;51.106;7.164;2022-10-15T01:48:35;5.45;;;2.83;;
21192;SDS011;10754;51.106;7.164;2022-10-15T01:51:03;6.82;;;2.80;;
21192;SDS011;10754;51.106;7.164;2022-10-15T01:53:30;3.20;;;2.42;;
21192;SDS011;10754;51.106;7.164;2022-10-15T01:56:03;4.90;;;3.00;;
21192;SDS011;10754;51.106;7.164;2022-10-15T01:58:34;4.72;;;3.10;;
21192;SDS011;10754;51.106;7.164;2022-10-15T02:01:03;5.38;;;3.00;;
21192;SDS011;10754;51.106;7.164;2022-10-15T02:03:29;2.88;;;2.67;;
21192;SDS011;10754;51.106;7.164;2022-10-15T02:08:38;6.95;;;3.72;;
21192;SDS011;10754;51.106;7.164;2022-10-15T02:11:11;4.97;;;4.50;;
21192;SDS011;10754;51.106;7.164;2022-10-15T02:16:27;5.18;;;4.05;;
21192;SDS011;10754;51.106;7.164;2022-10-15T02:21:52;4.85;;;4.45;;
21192;SDS011;10754;51.106;7.164;2022-10-15T02:24:27;6.20;;;3.97;;
21192;SDS011;10754;51.106;7.164;2022-10-15T02:26:58;3.90;;;3.53;;
21192;SDS011;10754;51.106;7.164;2022-10-15T02:29:26;3.83;;;3.50;;
21192;SDS011;10754;51.106;7.164;2022-10-15T02:31:56;5.05;;;3.92;;
21192;SDS011;10754;51.106;7.164;2022-10-15T02:34:24;4.32;;;3.13;;
21192;SDS011;10754;51.106;7.164;2022-10-15T02:36:52;5.75;;;3.40;;
21192;SDS011;10754;51.106;7.164;2022-10-15T02:39:21;6.53;;;3.20;;
21192;SDS011;10754;51.106;7.164;2022-10-15T02:41:48;3.63;;;3.28;;
21192;SDS011;10754;51.106;7.164;2022-10-15T02:44:15;6.55;;;3.70;;
21192;SDS011;10754;51.106;7.164;2022-10-15T02:46:41;5.80;;;3.90;;
21192;SDS011;10754;51.106;7.164;2022-10-15T02:49:06;4.18;;;3.65;;
21192;SDS011;10754;51.106;7.164;2022-10-15T02:51:33;6.93;;;4.20;;
21192;SDS011;10754;51.106;7.164;2022-10-15T02:53:59;5.78;;;3.70;;
21192;SDS011;10754;51.106;7.164;2022-10-15T02:56:26;5.75;;;4.40;;
21192;SDS011;10754;51.106;7.164;2022-10-15T02:58:51;5.65;;;3.75;;
21192;SDS011;10754;51.106;7.164;2022-10-15T03:01:17;4.93;;;4.53;;
21192;SDS011;10754;51.106;7.164;2022-10-15T03:03:42;4.80;;;4.40;;
21192;SDS011;10754;51.106;7.164;2022-10-15T03:06:08;4.88;;;4.45;;
21192;SDS011;10754;51.106;7.164;2022-10-15T03:08:33;5.10;;;4.47;;
21192;SDS011;10754;51.106;7.164;2022-10-15T03:10:59;9.40;;;5.57;;
21192;SDS011;10754;51.106;7.164;2022-10-15T03:13:25;6.25;;;4.28;;
21192;SDS011;10754;51.106;7.164;2022-10-15T03:15:51;7.68;;;4.40;;
21192;SDS011;10754;51.106;7.164;2022-10-15T03:18:17;4.75;;;4.25;;
21192;SDS011;10754;51.106;7.164;2022-10-15T03:20:42;7.32;;;4.90;;
21192;SDS011;10754;51.106;7.164;2022-10-15T03:23:08;5.40;;;4.90;;
21192;SDS011;10754;51.106;7.164;2022-10-15T03:25:34;4.97;;;4.47;;
21192;SDS011;10754;51.106;7.164;2022-10-15T03:27:59;5.22;;;4.28;;
21192;SDS011;10754;51.106;7.164;2022-10-15T03:30:25;6.50;;;4.90;;
21192;SDS011;10754;51.106;7.164;2022-10-15T03:32:50;5.13;;;4.72;;
21192;SDS011;10754;51.106;7.164;2022-10-15T03:35:16;6.95;;;5.70;;
21192;SDS011;10754;51.106;7.164;2022-10-15T03:37:41;8.35;;;5.03;;
21192;SDS011;10754;51.106;7.164;2022-10-15T03:40:07;4.88;;;4.25;;
21192;SDS011;10754;51.106;7.164;2022-10-15T03:42:33;5.13;;;4.63;;
21192;SDS011;10754;51.106;7.164;2022-10-15T03:44:58;6.50;;;4.60;;
21192;SDS011;10754;51.106;7.164;2022-10-15T03:47:24;4.80;;;4.38;;
21192;SDS011;10754;51.106;7.164;2022-10-15T03:49:49;6.22;;;4.55;;
21192;SDS011;10754;51.106;7.164;2022-10-15T03:52:15;5.88;;;5.38;;
21192;SDS011;10754;51.106;7.164;2022-10-15T03:54:41;8.98;;;5.55;;
21192;SDS011;10754;51.106;7.164;2022-10-15T03:57:07;6.43;;;5.82;;
21192;SDS011;10754;51.106;7.164;2022-10-15T03:59:32;7.18;;;6.57;;
21192;SDS011;10754;51.106;7.164;2022-10-15T04:01:58;7.07;;;6.38;;
21192;SDS011;10754;51.106;7.164;2022-10-15T04:04:23;7.15;;;6.55;;
21192;SDS011;10754;51.106;7.164;2022-10-15T04:06:48;8.07;;;7.28;;
21192;SDS011;10754;51.106;7.164;2022-10-15T04:09:14;7.63;;;6.93;;
21192;SDS011;10754;51.106;7.164;2022-10-15T04:11:40;7.35;;;6.75;;
21192;SDS011;10754;51.106;7.164;2022-10-15T04:14:05;8.90;;;8.07;;
21192;SDS011;10754;51.106;7.164;2022-10-15T04:16:31;7.95;;;7.15;;
21192;SDS011;10754;51.106;7.164;2022-10-15T04:18:57;8.15;;;7.13;;
21192;SDS011;10754;51.106;7.164;2022-10-15T04:21:26;6.82;;;6.22;;
21192;SDS011;10754;51.106;7.164;2022-10-15T04:23:51;7.95;;;7.25;;
21192;SDS011;10754;51.106;7.164;2022-10-15T04:26:17;8.50;;;6.25;;
21192;SDS011;10754;51.106;7.164;2022-10-15T04:28:42;6.95;;;6.35;;
21192;SDS011;10754;51.106;7.164;2022-10-15T04:31:08;11.93;;;6.22;;
21192;SDS011;10754;51.106;7.164;2022-10-15T04:33:33;7.47;;;6.78;;
21192;SDS011;10754;51.106;7.164;2022-10-15T04:35:59;7.32;;;6.13;;
21192;SDS011;10754;51.106;7.164;2022-10-15T04:38:30;6.20;;;5.70;;
21192;SDS011;10754;51.106;7.164;2022-10-15T04:40:59;6.30;;;5.70;;
21192;SDS011;10754;51.106;7.164;2022-10-15T04:43:29;6.05;;;5.55;;
21192;SDS011;10754;51.106;7.164;2022-10-15T04:45:55;7.10;;;6.20;;
21192;SDS011;10754;51.106;7.164;2022-10-15T04:48:22;7.85;;;6.05;;
21192;SDS011;10754;51.106;7.164;2022-10-15T04:50:47;6.45;;;5.10;;
21192;SDS011;10754;51.106;7.164;2022-10-15T04:53:13;5.45;;;4.90;;
21192;SDS011;10754;51.106;7.164;2022-10-15T04:55:38;5.53;;;5.13;;
21192;SDS011;10754;51.106;7.164;2022-10-15T04:58:04;6.03;;;5.53;;
21192;SDS011;10754;51.106;7.164;2022-10-15T05:00:29;6.38;;;5.78;;
21192;SDS011;10754;51.106;7.164;2022-10-15T05:02:55;6.72;;;6.18;;
21192;SDS011;10754;51.106;7.164;2022-10-15T05:05:20;7.00;;;6.30;;
21192;SDS011;10754;51.106;7.164;2022-10-15T05:07:46;5.40;;;5.00;;
21192;SDS011;10754;51.106;7.164;2022-10-15T05:10:11;5.75;;;5.25;;
21192;SDS011;10754;51.106;7.164;2022-10-15T05:12:37;5.93;;;5.43;;
21192;SDS011;10754;51.106;7.164;2022-10-15T05:15:02;6.03;;;5.53;;
21192;SDS011;10754;51.106;7.164;2022-10-15T05:17:28;8.38;;;6.07;;
21192;SDS011;10754;51.106;7.164;2022-10-15T05:19:54;6.70;;;6.10;;
21192;SDS011;10754;51.106;7.164;2022-10-15T05:22:20;6.10;;;5.50;;
21192;SDS011;10754;51.106;7.164;2022-10-15T05:24:45;5.88;;;5.28;;
21192;SDS011;10754;51.106;7.164;2022-10-15T05:27:11;7.20;;;5.47;;
21192;SDS011;10754;51.106;7.164;2022-10-15T05:29:36;6.78;;;6.18;;
21192;SDS011;10754;51.106;7.164;2022-10-15T05:32:03;5.85;;;5.25;;
21192;SDS011;10754;51.106;7.164;2022-10-15T05:34:29;5.63;;;5.15;;
21192;SDS011;10754;51.106;7.164;2022-10-15T05:36:55;6.03;;;5.43;;
21192;SDS011;10754;51.106;7.164;2022-10-15T05:39:20;6.43;;;5.93;;
21192;SDS011;10754;51.106;7.164;2022-10-15T05:41:46;6.07;;;5.35;;
21192;SDS011;10754;51.106;7.164;2022-10-15T05:44:11;7.57;;;5.63;;
21192;SDS011;10754;51.106;7.164;2022-10-15T05:46:37;6.20;;;5.60;;
21192;SDS011;10754;51.106;7.164;2022-10-15T05:49:03;6.63;;;5.22;;
21192;SDS011;10754;51.106;7.164;2022-10-15T05:51:28;5.75;;;5.15;;
21192;SDS011;10754;51.106;7.164;2022-10-15T05:53:57;5.97;;;5.38;;
21192;SDS011;10754;51.106;7.164;2022-10-15T05:56:23;6.30;;;5.80;;
21192;SDS011;10754;51.106;7.164;2022-10-15T05:58:49;7.63;;;5.95;;
21192;SDS011;10754;51.106;7.164;2022-10-15T06:01:15;6.38;;;5.72;;
21192;SDS011;10754;51.106;7.164;2022-10-15T06:03:41;8.77;;;5.10;;
21192;SDS011;10754;51.106;7.164;2022-10-15T06:06:17;6.45;;;5.55;;
21192;SDS011;10754;51.106;7.164;2022-10-15T06:08:44;6.38;;;5.88;;
21192;SDS011;10754;51.106;7.164;2022-10-15T06:11:10;6.18;;;5.68;;
21192;SDS011;10754;51.106;7.164;2022-10-15T06:13:37;6.00;;;5.50;;
21192;SDS011;10754;51.106;7.164;2022-10-15T06:16:04;6.22;;;5.72;;
21192;SDS011;10754;51.106;7.164;2022-10-15T06:18:30;6.63;;;6.03;;
21192;SDS011;10754;51.106;7.164;2022-10-15T06:20:56;6.97;;;6.38;;
21192;SDS011;10754;51.106;7.164;2022-10-15T06:23:21;6.65;;;6.15;;
21192;SDS011;10754;51.106;7.164;2022-10-15T06:25:48;6.32;;;5.80;;
21192;SDS011;10754;51.106;7.164;2022-10-15T06:28:14;6.90;;;5.78;;
21192;SDS011;10754;51.106;7.164;2022-10-15T06:30:39;6.38;;;5.88;;
21192;SDS011;10754;51.106;7.164;2022-10-15T06:33:05;5.80;;;5.22;;
21192;SDS011;10754;51.106;7.164;2022-10-15T06:35:30;6.05;;;5.55;;
21192;SDS011;10754;51.106;7.164;2022-10-15T06:37:59;6.28;;;5.78;;
21192;SDS011;10754;51.106;7.164;2022-10-15T06:40:26;6.40;;;5.80;;
21192;SDS011;10754;51.106;7.164;2022-10-15T06:42:51;6.55;;;5.90;;
21192;SDS011;10754;51.106;7.164;2022-10-15T06:45:17;5.85;;;5.40;;
21192;SDS011;10754;51.106;7.164;2022-10-15T06:47:42;6.05;;;5.45;;
21192;SDS011;10754;51.106;7.164;2022-10-15T06:50:08;6.65;;;6.05;;
21192;SDS011;10754;51.106;7.164;2022-10-15T06:52:34;6.93;;;5.30;;
21192;SDS011;10754;51.106;7.164;2022-10-15T06:54:59;6.53;;;5.90;;
21192;SDS011;10754;51.106;7.164;2022-10-15T06:57:28;7.80;;;5.40;;
21192;SDS011;10754;51.106;7.164;2022-10-15T06:59:53;6.40;;;5.82;;
21192;SDS011;10754;51.106;7.164;2022-10-15T07:02:19;6.03;;;5.47;;
21192;SDS011;10754;51.106;7.164;2022-10-15T07:04:45;7.00;;;5.72;;
21192;SDS011;10754;51.106;7.164;2022-10-15T07:07:11;6.22;;;5.63;;
21192;SDS011;10754;51.106;7.164;2022-10-15T07:09:37;6.07;;;5.47;;
21192;SDS011;10754;51.106;7.164;2022-10-15T07:12:02;5.57;;;5.07;;
21192;SDS011;10754;51.106;7.164;2022-10-15T07:14:28;4.90;;;4.50;;
21192;SDS011;10754;51.106;7.164;2022-10-15T07:16:54;6.22;;;4.22;;
21192;SDS011;10754;51.106;7.164;2022-10-15T07:19:19;5.38;;;4.43;;
21192;SDS011;10754;51.106;7.164;2022-10-15T07:21:45;5.38;;;4.50;;
21192;SDS011;10754;51.106;7.164;2022-10-15T07:24:10;4.40;;;4.00;;
21192;SDS011;10754;51.106;7.164;2022-10-15T07:26:36;4.85;;;4.35;;
21192;SDS011;10754;51.106;7.164;2022-10-15T07:29:02;3.95;;;3.65;;
21192;SDS011;10754;51.106;7.164;2022-10-15T07:31:28;6.65;;;3.13;;
21192;SDS011;10754;51.106;7.164;2022-10-15T07:33:53;5.20;;;3.72;;
21192;SDS011;10754;51.106;7.164;2022-10-15T07:36:19;4.10;;;3.70;;
21192;SDS011;10754;51.106;7.164;2022-10-15T07:38:45;4.35;;;3.20;;
21192;SDS011;10754;51.106;7.164;2022-10-15T07:41:10;3.97;;;3.63;;
21192;SDS011;10754;51.106;7.164;2022-10-15T07:43:36;3.63;;;3.33;;
21192;SDS011;10754;51.106;7.164;2022-10-15T07:46:02;3.50;;;2.58;;
21192;SDS011;10754;51.106;7.164;2022-10-15T07:48:29;3.22;;;2.38;;
21192;SDS011;10754;51.106;7.164;2022-10-15T07:53:24;2.72;;;2.00;;
21192;SDS011;10754;51.106;7.164;2022-10-15T07:55:50;2.38;;;1.73;;
21192;SDS011;10754;51.106;7.164;2022-10-15T07:58:16;1.88;;;1.77;;
21192;SDS011;10754;51.106;7.164;2022-10-15T08:00:42;3.30;;;1.50;;
21192;SDS011;10754;51.106;7.164;2022-10-15T08:03:08;1.42;;;1.23;;
21192;SDS011;10754;51.106;7.164;2022-10-15T08:05:33;1.58;;;1.48;;
21192;SDS011;10754;51.106;7.164;2022-10-15T08:07:59;1.67;;;1.58;;
21192;SDS011;10754;51.106;7.164;2022-10-15T08:10:24;1.85;;;1.40;;
21192;SDS011;10754;51.106;7.164;2022-10-15T08:12:50;1.88;;;1.13;;
21192;SDS011;10754;51.106;7.164;2022-10-15T08:15:16;2.83;;;1.27;;
21192;SDS011;10754;51.106;7.164;2022-10-15T08:17:42;2.88;;;1.20;;
21192;SDS011;10754;51.106;7.164;2022-10-15T08:20:08;1.30;;;1.20;;
21192;SDS011;10754;51.106;7.164;2022-10-15T08:22:33;2.60;;;1.50;;
21192;SDS011;10754;51.106;7.164;2022-10-15T08:24:59;1.33;;;1.20;;
21192;SDS011;10754;51.106;7.164;2022-10-15T08:27:25;1.30;;;1.20;;
21192;SDS011;10754;51.106;7.164;2022-10-15T08:29:50;1.17;;;1.00;;
21192;SDS011;10754;51.106;7.164;2022-10-15T08:32:16;1.33;;;1.00;;
21192;SDS011;10754;51.106;7.164;2022-10-15T08:34:41;2.22;;;1.08;;
21192;SDS011;10754;51.106;7.164;2022-10-15T08:37:07;2.22;;;1.20;;
21192;SDS011;10754;51.106;7.164;2022-10-15T08:39:33;3.75;;;0.98;;
21192;SDS011;10754;51.106;7.164;2022-10-15T08:42:00;1.20;;;0.75;;
21192;SDS011;10754;51.106;7.164;2022-10-15T08:44:29;2.95;;;0.50;;
21192;SDS011;10754;51.106;7.164;2022-10-15T08:47:07;0.60;;;0.50;;
21192;SDS011;10754;51.106;7.164;2022-10-15T08:49:46;0.60;;;0.50;;
21192;SDS011;10754;51.106;7.164;2022-10-15T08:52:20;0.95;;;0.63;;
21192;SDS011;10754;51.106;7.164;2022-10-15T08:55:09;0.57;;;0.40;;
21192;SDS011;10754;51.106;7.164;2022-10-15T08:57:42;0.40;;;0.30;;
21192;SDS011;10754;51.106;7.164;2022-10-15T09:00:18;0.82;;;0.40;;
21192;SDS011;10754;51.106;7.164;2022-10-15T09:05:42;0.70;;;0.40;;
21192;SDS011;10754;51.106;7.164;2022-10-15T09:08:19;0.82;;;0.30;;
21192;SDS011;10754;51.106;7.164;2022-10-15T09:11:06;0.25;;;0.22;;
21192;SDS011;10754;51.106;7.164;2022-10-15T09:13:53;0.68;;;0.50;;
21192;SDS011;10754;51.106;7.164;2022-10-15T09:16:29;0.30;;;0.30;;
21192;SDS011;10754;51.106;7.164;2022-10-15T09:18:59;0.30;;;0.30;;
21192;SDS011;10754;51.106;7.164;2022-10-15T09:21:29;0.75;;;0.40;;
21192;SDS011;10754;51.106;7.164;2022-10-15T09:24:02;0.38;;;0.38;;
21192;SDS011;10754;51.106;7.164;2022-10-15T09:26:46;3.25;;;0.68;;
21192;SDS011;10754;51.106;7.164;2022-10-15T09:31:47;0.50;;;0.30;;
21192;SDS011;10754;51.106;7.164;2022-10-15T09:34:30;0.63;;;0.20;;
21192;SDS011;10754;51.106;7.164;2022-10-15T09:37:08;0.50;;;0.35;;
21192;SDS011;10754;51.106;7.164;2022-10-15T09:39:44;0.32;;;0.20;;
21192;SDS011;10754;51.106;7.164;2022-10-15T09:42:35;0.30;;;0.30;;
21192;SDS011;10754;51.106;7.164;2022-10-15T09:45:07;0.30;;;0.20;;
21192;SDS011;10754;51.106;7.164;2022-10-15T09:47:35;0.45;;;0.20;;
21192;SDS011;10754;51.106;7.164;2022-10-15T09:50:05;0.90;;;0.20;;
21192;SDS011;10754;51.106;7.164;2022-10-15T09:52:44;0.47;;;0.20;;
21192;SDS011;10754;51.106;7.164;2022-10-15T09:55:55;0.25;;;0.20;;
21192;SDS011;10754;51.106;7.164;2022-10-15T09:58:11;0.20;;;0.20;;
21192;SDS011;10754;51.106;7.164;2022-10-15T10:00:53;0.40;;;0.20;;
21192;SDS011;10754;51.106;7.164;2022-10-15T10:03:21;1.05;;;0.15;;
21192;SDS011;10754;51.106;7.164;2022-10-15T10:05:48;0.47;;;0.20;;
21192;SDS011;10754;51.106;7.164;2022-10-15T10:10:40;1.17;;;0.20;;
21192;SDS011;10754;51.106;7.164;2022-10-15T10:13:08;3.33;;;0.30;;
21192;SDS011;10754;51.106;7.164;2022-10-15T10:15:52;0.20;;;0.15;;
21192;SDS011;10754;51.106;7.164;2022-10-15T10:18:23;1.05;;;0.32;;
21192;SDS011;10754;51.106;7.164;2022-10-15T10:20:53;0.25;;;0.20;;
21192;SDS011;10754;51.106;7.164;2022-10-15T10:23:23;0.30;;;0.30;;
21192;SDS011;10754;51.106;7.164;2022-10-15T10:25:54;0.93;;;0.43;;
21192;SDS011;10754;51.106;7.164;2022-10-15T10:28:25;1.30;;;0.25;;
21192;SDS011;10754;51.106;7.164;2022-10-15T10:31:00;1.38;;;0.32;;
21192;SDS011;10754;51.106;7.164;2022-10-15T10:33:32;0.65;;;0.60;;
21192;SDS011;10754;51.106;7.164;2022-10-15T10:36:07;1.00;;;0.20;;
21192;SDS011;10754;51.106;7.164;2022-10-15T10:38:53;0.43;;;0.25;;
21192;SDS011;10754;51.106;7.164;2022-10-15T10:41:46;1.58;;;0.35;;
21192;SDS011;10754;51.106;7.164;2022-10-15T10:44:26;0.57;;;0.20;;
21192;SDS011;10754;51.106;7.164;2022-10-15T10:47:00;0.77;;;0.32;;
21192;SDS011;10754;51.106;7.164;2022-10-15T10:49:32;0.25;;;0.20;;
21192;SDS011;10754;51.106;7.164;2022-10-15T10:52:17;0.55;;;0.40;;
21192;SDS011;10754;51.106;7.164;2022-10-15T10:54:44;0.38;;;0.30;;
21192;SDS011;10754;51.106;7.164;2022-10-15T10:57:12;1.08;;;0.35;;
21192;SDS011;10754;51.106;7.164;2022-10-15T10:59:50;0.60;;;0.30;;
21192;SDS011;10754;51.106;7.164;2022-10-15T11:02:17;0.63;;;0.30;;
21192;SDS011;10754;51.106;7.164;2022-10-15T11:04:43;0.65;;;0.30;;
21192;SDS011;10754;51.106;7.164;2022-10-15T11:07:18;3.08;;;0.52;;
21192;SDS011;10754;51.106;7.164;2022-10-15T11:10:07;1.33;;;0.40;;
21192;SDS011;10754;51.106;7.164;2022-10-15T11:13:27;0.40;;;0.32;;
21192;SDS011;10754;51.106;7.164;2022-10-15T11:15:38;2.92;;;0.60;;
21192;SDS011;10754;51.106;7.164;2022-10-15T11:20:57;0.55;;;0.30;;
21192;SDS011;10754;51.106;7.164;2022-10-15T11:23:32;1.95;;;0.30;;
21192;SDS011;10754;51.106;7.164;2022-10-15T11:28:55;0.75;;;0.35;;
21192;SDS011;10754;51.106;7.164;2022-10-15T11:31:47;0.30;;;0.20;;
21192;SDS011;10754;51.106;7.164;2022-10-15T11:34:46;1.17;;;0.30;;
21192;SDS011;10754;51.106;7.164;2022-10-15T11:40:13;2.60;;;0.22;;
21192;SDS011;10754;51.106;7.164;2022-10-15T11:42:54;0.60;;;0.20;;
21192;SDS011;10754;51.106;7.164;2022-10-15T11:47:52;1.45;;;0.43;;
21192;SDS011;10754;51.106;7.164;2022-10-15T11:55:55;0.98;;;0.30;;
21192;SDS011;10754;51.106;7.164;2022-10-15T11:58:32;0.90;;;0.20;;
21192;SDS011;10754;51.106;7.164;2022-10-15T12:01:06;0.40;;;0.30;;
21192;SDS011;10754;51.106;7.164;2022-10-15T12:03:55;0.80;;;0.25;;
21192;SDS011;10754;51.106;7.164;2022-10-15T12:06:25;0.55;;;0.30;;
21192;SDS011;10754;51.106;7.164;2022-10-15T12:08:55;1.17;;;0.20;;
21192;SDS011;10754;51.106;7.164;2022-10-15T12:11:26;3.70;;;0.40;;
21192;SDS011;10754;51.106;7.164;2022-10-15T12:17:22;1.13;;;0.30;;
21192;SDS011;10754;51.106;7.164;2022-10-15T12:20:13;0.43;;;0.25;;
21192;SDS011;10754;51.106;7.164;2022-10-15T12:28:21;0.30;;;0.13;;
21192;SDS011;10754;51.106;7.164;2022-10-15T12:30:52;0.50;;;0.30;;
21192;SDS011;10754;51.106;7.164;2022-10-15T12:33:31;1.75;;;0.50;;
21192;SDS011;10754;51.106;7.164;2022-10-15T12:36:24;2.00;;;0.30;;
21192;SDS011;10754;51.106;7.164;2022-10-15T12:39:02;0.98;;;0.30;;
21192;SDS011;10754;51.106;7.164;2022-10-15T12:41:33;0.52;;;0.30;;
21192;SDS011;10754;51.106;7.164;2022-10-15T12:44:22;0.40;;;0.30;;
21192;SDS011;10754;51.106;7.164;2022-10-15T12:46:56;1.77;;;0.30;;
21192;SDS011;10754;51.106;7.164;2022-10-15T12:51:52;1.23;;;0.30;;
21192;SDS011;10754;51.106;7.164;2022-10-15T12:54:31;2.33;;;0.20;;
21192;SDS011;10754;51.106;7.164;2022-10-15T12:56:57;1.42;;;0.30;;
21192;SDS011;10754;51.106;7.164;2022-10-15T12:59:52;0.50;;;0.30;;
21192;SDS011;10754;51.106;7.164;2022-10-15T13:02:35;0.95;;;0.20;;
21192;SDS011;10754;51.106;7.164;2022-10-15T13:05:07;0.47;;;0.28;;
21192;SDS011;10754;51.106;7.164;2022-10-15T13:07:47;0.35;;;0.20;;
21192;SDS011;10754;51.106;7.164;2022-10-15T13:10:23;0.20;;;0.20;;
21192;SDS011;10754;51.106;7.164;2022-10-15T13:12:58;1.05;;;0.50;;
21192;SDS011;10754;51.106;7.164;2022-10-15T13:15:28;3.20;;;0.50;;
21192;SDS011;10754;51.106;7.164;2022-10-15T13:17:55;0.60;;;0.30;;
21192;SDS011;10754;51.106;7.164;2022-10-15T13:20:32;1.60;;;0.20;;
21192;SDS011;10754;51.106;7.164;2022-10-15T13:25:41;0.50;;;0.35;;
21192;SDS011;10754;51.106;7.164;2022-10-15T13:31:16;0.57;;;0.40;;
21192;SDS011;10754;51.106;7.164;2022-10-15T13:33:47;0.45;;;0.30;;
21192;SDS011;10754;51.106;7.164;2022-10-15T13:36:24;0.22;;;0.10;;
21192;SDS011;10754;51.106;7.164;2022-10-15T13:38:57;1.70;;;0.35;;
21192;SDS011;10754;51.106;7.164;2022-10-15T13:41:30;5.90;;;1.98;;
21192;SDS011;10754;51.106;7.164;2022-10-15T13:43:58;2.20;;;0.60;;
21192;SDS011;10754;51.106;7.164;2022-10-15T13:46:28;1.02;;;0.30;;
21192;SDS011;10754;51.106;7.164;2022-10-15T13:49:02;0.38;;;0.20;;
21192;SDS011;10754;51.106;7.164;2022-10-15T13:51:34;0.95;;;0.30;;
21192;SDS011;10754;51.106;7.164;2022-10-15T13:54:06;2.75;;;0.50;;
21192;SDS011;10754;51.106;7.164;2022-10-15T13:56:53;1.02;;;0.40;;
21192;SDS011;10754;51.106;7.164;2022-10-15T13:59:24;1.02;;;0.43;;
21192;SDS011;10754;51.106;7.164;2022-10-15T14:01:56;1.45;;;0.40;;
21192;SDS011;10754;51.106;7.164;2022-10-15T14:04:25;1.13;;;0.65;;
21192;SDS011;10754;51.106;7.164;2022-10-15T14:06:56;0.40;;;0.15;;
21192;SDS011;10754;51.106;7.164;2022-10-15T14:09:29;1.30;;;0.30;;
21192;SDS011;10754;51.106;7.164;2022-10-15T14:11:57;0.65;;;0.45;;
21192;SDS011;10754;51.106;7.164;2022-10-15T14:14:34;1.30;;;0.30;;
21192;SDS011;10754;51.106;7.164;2022-10-15T14:17:02;1.15;;;0.20;;
21192;SDS011;10754;51.106;7.164;2022-10-15T14:19:29;0.30;;;0.10;;
21192;SDS011;10754;51.106;7.164;2022-10-15T14:21:58;0.65;;;0.30;;
21192;SDS011;10754;51.106;7.164;2022-10-15T14:24:29;0.28;;;0.13;;
21192;SDS011;10754;51.106;7.164;2022-10-15T14:27:43;0.40;;;0.20;;
21192;SDS011;10754;51.106;7.164;2022-10-15T14:29:51;0.55;;;0.20;;
21192;SDS011;10754;51.106;7.164;2022-10-15T14:32:20;0.40;;;0.20;;
21192;SDS011;10754;51.106;7.164;2022-10-15T14:34:56;2.25;;;0.40;;
21192;SDS011;10754;51.106;7.164;2022-10-15T14:40:09;1.60;;;0.20;;
21192;SDS011;10754;51.106;7.164;2022-10-15T14:42:39;0.20;;;0.20;;
21192;SDS011;10754;51.106;7.164;2022-10-15T14:45:27;1.33;;;0.73;;
21192;SDS011;10754;51.106;7.164;2022-10-15T14:47:56;1.88;;;1.52;;
21192;SDS011;10754;51.106;7.164;2022-10-15T14:50:26;0.30;;;0.20;;
21192;SDS011;10754;51.106;7.164;2022-10-15T14:52:55;16.17;;;14.88;;
21192;SDS011;10754;51.106;7.164;2022-10-15T14:57:48;6.00;;;5.30;;
21192;SDS011;10754;51.106;7.164;2022-10-15T15:02:44;1.52;;;0.65;;
21192;SDS011;10754;51.106;7.164;2022-10-15T15:07:35;2.60;;;0.32;;
21192;SDS011;10754;51.106;7.164;2022-10-15T15:10:02;1.30;;;0.40;;
21192;SDS011;10754;51.106;7.164;2022-10-15T15:12:28;40.25;;;34.63;;
21192;SDS011;10754;51.106;7.164;2022-10-15T15:14:55;63.97;;;56.60;;
21192;SDS011;10754;51.106;7.164;2022-10-15T15:17:22;30.88;;;27.42;;
21192;SDS011;10754;51.106;7.164;2022-10-15T15:19:50;50.30;;;44.75;;
21192;SDS011;10754;51.106;7.164;2022-10-15T15:22:20;34.85;;;28.95;;
21192;SDS011;10754;51.106;7.164;2022-10-15T15:24:52;21.15;;;14.57;;
21192;SDS011;10754;51.106;7.164;2022-10-15T15:27:21;21.83;;;4.57;;
21192;SDS011;10754;51.106;7.164;2022-10-15T15:29:50;14.50;;;9.30;;
21192;SDS011;10754;51.106;7.164;2022-10-15T15:32:16;7.03;;;1.65;;
21192;SDS011;10754;51.106;7.164;2022-10-15T15:34:42;3.72;;;1.60;;
21192;SDS011;10754;51.106;7.164;2022-10-15T15:37:15;4.15;;;1.77;;
21192;SDS011;10754;51.106;7.164;2022-10-15T15:39:46;4.32;;;1.30;;
21192;SDS011;10754;51.106;7.164;2022-10-15T15:42:12;6.97;;;1.15;;
21192;SDS011;10754;51.106;7.164;2022-10-15T15:44:42;3.55;;;0.98;;
21192;SDS011;10754;51.106;7.164;2022-10-15T15:47:08;3.13;;;0.70;;
21192;SDS011;10754;51.106;7.164;2022-10-15T15:49:34;7.18;;;1.13;;
21192;SDS011;10754;51.106;7.164;2022-10-15T15:52:01;4.53;;;0.93;;
21192;SDS011;10754;51.106;7.164;2022-10-15T15:54:28;2.90;;;0.80;;
21192;SDS011;10754;51.106;7.164;2022-10-15T15:56:54;4.28;;;0.90;;
21192;SDS011;10754;51.106;7.164;2022-10-15T15:59:19;4.50;;;1.23;;
21192;SDS011;10754;51.106;7.164;2022-10-15T16:01:45;2.15;;;1.00;;
21192;SDS011;10754;51.106;7.164;2022-10-15T16:04:10;2.60;;;0.98;;
21192;SDS011;10754;51.106;7.164;2022-10-15T16:06:37;3.42;;;1.00;;
21192;SDS011;10754;51.106;7.164;2022-10-15T16:09:03;1.85;;;0.60;;
21192;SDS011;10754;51.106;7.164;2022-10-15T16:11:29;2.40;;;0.70;;
21192;SDS011;10754;51.106;7.164;2022-10-15T16:13:56;2.20;;;0.68;;
21192;SDS011;10754;51.106;7.164;2022-10-15T16:16:22;4.53;;;1.05;;
21192;SDS011;10754;51.106;7.164;2022-10-15T16:18:48;1.67;;;0.60;;
21192;SDS011;10754;51.106;7.164;2022-10-15T16:21:19;1.40;;;0.88;;